sensor_id;sensor_type;location;lat;lon;timestamp;pressure;altitude;pressure_sealevel;temperature
9985;BMP180;16737;50.932;6.780;2023-05-29T00:02:05;100743.00;;;21.30
9985;BMP180;16737;50.932;6.780;2023-05-29T00:04:33;100748.00;;;21.30
9985;BMP180;16737;50.932;6.780;2023-05-29T00:07:01;100750.00;;;21.20
9985;BMP180;16737;50.932;6.780;2023-05-29T00:09:28;100752.00;;;21.10
9985;BMP180;16737;50.932;6.780;2023-05-29T00:11:55;100748.00;;;21.10
9985;BMP180;16737;50.932;6.780;2023-05-29T00:14:22;100745.00;;;21.00
9985;BMP180;16737;50.932;6.780;2023-05-29T00:16:49;100744.00;;;20.90
9985;BMP180;16737;50.932;6.780;2023-05-29T00:19:16;100747.00;;;20.90
9985;BMP180;16737;50.932;6.780;2023-05-29T00:21:46;100755.00;;;20.80
9985;BMP180;16737;50.932;6.780;2023-05-29T00:24:14;100748.00;;;20.70
9985;BMP180;16737;50.932;6.780;2023-05-29T00:26:41;100747.00;;;20.70
9985;BMP180;16737;50.932;6.780;2023-05-29T00:29:08;100757.00;;;20.60
9985;BMP180;16737;50.932;6.780;2023-05-29T00:31:36;100755.00;;;20.60
9985;BMP180;16737;50.932;6.780;2023-05-29T00:34:03;100754.00;;;20.50
9985;BMP180;16737;50.932;6.780;2023-05-29T00:36:30;100756.00;;;20.50
9985;BMP180;16737;50.932;6.780;2023-05-29T00:38:59;100756.00;;;20.40
9985;BMP180;16737;50.932;6.780;2023-05-29T00:41:25;100753.00;;;20.40
9985;BMP180;16737;50.932;6.780;2023-05-29T00:43:52;100752.00;;;20.30
9985;BMP180;16737;50.932;6.780;2023-05-29T00:46:20;100744.00;;;20.30
9985;BMP180;16737;50.932;6.780;2023-05-29T00:48:48;100736.00;;;20.20
9985;BMP180;16737;50.932;6.780;2023-05-29T00:51:16;100757.00;;;20.20
9985;BMP180;16737;50.932;6.780;2023-05-29T00:53:44;100708.00;;;20.20
9985;BMP180;16737;50.932;6.780;2023-05-29T00:56:13;100756.00;;;20.10
9985;BMP180;16737;50.932;6.780;2023-05-29T00:58:41;100756.00;;;20.00
9985;BMP180;16737;50.932;6.780;2023-05-29T01:01:09;100735.00;;;20.00
9985;BMP180;16737;50.932;6.780;2023-05-29T01:03:37;100752.00;;;20.00
9985;BMP180;16737;50.932;6.780;2023-05-29T01:06:05;100755.00;;;19.90
9985;BMP180;16737;50.932;6.780;2023-05-29T01:08:33;100752.00;;;19.90
9985;BMP180;16737;50.932;6.780;2023-05-29T01:11:14;100759.00;;;19.80
9985;BMP180;16737;50.932;6.780;2023-05-29T01:13:47;100759.00;;;19.70
9985;BMP180;16737;50.932;6.780;2023-05-29T01:16:26;100752.00;;;19.60
9985;BMP180;16737;50.932;6.780;2023-05-29T01:19:05;100759.00;;;19.60
9985;BMP180;16737;50.932;6.780;2023-05-29T01:21:52;100757.00;;;19.50
9985;BMP180;16737;50.932;6.780;2023-05-29T01:24:32;100758.00;;;19.50
9985;BMP180;16737;50.932;6.780;2023-05-29T01:27:05;100739.00;;;19.40
9985;BMP180;16737;50.932;6.780;2023-05-29T01:29:34;100761.00;;;19.30
9985;BMP180;16737;50.932;6.780;2023-05-29T01:32:04;100763.00;;;19.30
9985;BMP180;16737;50.932;6.780;2023-05-29T01:34:31;100749.00;;;19.20
9985;BMP180;16737;50.932;6.780;2023-05-29T01:36:58;100763.00;;;19.10
9985;BMP180;16737;50.932;6.780;2023-05-29T01:39:26;100746.00;;;19.10
9985;BMP180;16737;50.932;6.780;2023-05-29T01:41:54;100768.00;;;19.00
9985;BMP180;16737;50.932;6.780;2023-05-29T01:44:24;100777.00;;;19.00
9985;BMP180;16737;50.932;6.780;2023-05-29T01:46:52;100775.00;;;18.90
9985;BMP180;16737;50.932;6.780;2023-05-29T01:49:20;100778.00;;;18.90
9985;BMP180;16737;50.932;6.780;2023-05-29T01:51:48;100782.00;;;18.80
9985;BMP180;16737;50.932;6.780;2023-05-29T01:54:16;100788.00;;;18.80
9985;BMP180;16737;50.932;6.780;2023-05-29T01:56:44;100769.00;;;18.80
9985;BMP180;16737;50.932;6.780;2023-05-29T01:59:13;100779.00;;;18.70
9985;BMP180;16737;50.932;6.780;2023-05-29T02:01:41;100782.00;;;18.70
9985;BMP180;16737;50.932;6.780;2023-05-29T02:04:08;100778.00;;;18.60
9985;BMP180;16737;50.932;6.780;2023-05-29T02:06:35;100788.00;;;18.60
9985;BMP180;16737;50.932;6.780;2023-05-29T02:09:02;100786.00;;;18.50
9985;BMP180;16737;50.932;6.780;2023-05-29T02:11:29;100788.00;;;18.50
9985;BMP180;16737;50.932;6.780;2023-05-29T02:13:56;100789.00;;;18.40
9985;BMP180;16737;50.932;6.780;2023-05-29T02:16:23;100798.00;;;18.40
9985;BMP180;16737;50.932;6.780;2023-05-29T02:18:57;100792.00;;;18.30
9985;BMP180;16737;50.932;6.780;2023-05-29T02:21:24;100796.00;;;18.20
9985;BMP180;16737;50.932;6.780;2023-05-29T02:23:52;100780.00;;;18.20
9985;BMP180;16737;50.932;6.780;2023-05-29T02:26:19;100780.00;;;18.10
9985;BMP180;16737;50.932;6.780;2023-05-29T02:28:46;100797.00;;;18.10
9985;BMP180;16737;50.932;6.780;2023-05-29T02:31:13;100806.00;;;18.00
9985;BMP180;16737;50.932;6.780;2023-05-29T02:33:40;100810.00;;;18.00
9985;BMP180;16737;50.932;6.780;2023-05-29T02:36:08;100809.00;;;17.90
9985;BMP180;16737;50.932;6.780;2023-05-29T02:38:37;100806.00;;;17.80
9985;BMP180;16737;50.932;6.780;2023-05-29T02:41:04;100807.00;;;17.80
9985;BMP180;16737;50.932;6.780;2023-05-29T02:43:31;100805.00;;;17.80
9985;BMP180;16737;50.932;6.780;2023-05-29T02:45:58;100794.00;;;17.70
9985;BMP180;16737;50.932;6.780;2023-05-29T02:48:25;100805.00;;;17.70
9985;BMP180;16737;50.932;6.780;2023-05-29T02:50:52;100815.00;;;17.70
9985;BMP180;16737;50.932;6.780;2023-05-29T02:53:20;100809.00;;;17.60
9985;BMP180;16737;50.932;6.780;2023-05-29T02:55:50;100806.00;;;17.60
9985;BMP180;16737;50.932;6.780;2023-05-29T02:58:18;100808.00;;;17.50
9985;BMP180;16737;50.932;6.780;2023-05-29T03:00:46;100810.00;;;17.50
9985;BMP180;16737;50.932;6.780;2023-05-29T03:03:14;100808.00;;;17.50
9985;BMP180;16737;50.932;6.780;2023-05-29T03:05:41;100813.00;;;17.40
9985;BMP180;16737;50.932;6.780;2023-05-29T03:08:07;100816.00;;;17.40
9985;BMP180;16737;50.932;6.780;2023-05-29T03:10:37;100812.00;;;17.40
9985;BMP180;16737;50.932;6.780;2023-05-29T03:13:04;100814.00;;;17.30
9985;BMP180;16737;50.932;6.780;2023-05-29T03:15:31;100799.00;;;17.30
9985;BMP180;16737;50.932;6.780;2023-05-29T03:17:57;100818.00;;;17.20
9985;BMP180;16737;50.932;6.780;2023-05-29T03:20:25;100808.00;;;17.20
9985;BMP180;16737;50.932;6.780;2023-05-29T03:22:52;100820.00;;;17.10
9985;BMP180;16737;50.932;6.780;2023-05-29T03:25:19;100807.00;;;17.10
9985;BMP180;16737;50.932;6.780;2023-05-29T03:27:48;100817.00;;;17.10
9985;BMP180;16737;50.932;6.780;2023-05-29T03:30:15;100817.00;;;17.00
9985;BMP180;16737;50.932;6.780;2023-05-29T03:32:42;100810.00;;;17.00
9985;BMP180;16737;50.932;6.780;2023-05-29T03:35:09;100802.00;;;17.00
9985;BMP180;16737;50.932;6.780;2023-05-29T03:37:36;100809.00;;;16.90
9985;BMP180;16737;50.932;6.780;2023-05-29T03:40:04;100818.00;;;16.90
9985;BMP180;16737;50.932;6.780;2023-05-29T03:42:31;100806.00;;;16.80
9985;BMP180;16737;50.932;6.780;2023-05-29T03:45:00;100820.00;;;16.80
9985;BMP180;16737;50.932;6.780;2023-05-29T03:47:26;100819.00;;;16.80
9985;BMP180;16737;50.932;6.780;2023-05-29T03:49:53;100795.00;;;16.80
9985;BMP180;16737;50.932;6.780;2023-05-29T03:52:22;100819.00;;;16.80
9985;BMP180;16737;50.932;6.780;2023-05-29T03:54:49;100813.00;;;16.80
9985;BMP180;16737;50.932;6.780;2023-05-29T03:57:16;100807.00;;;16.70
9985;BMP180;16737;50.932;6.780;2023-05-29T03:59:43;100824.00;;;16.80
9985;BMP180;16737;50.932;6.780;2023-05-29T04:02:11;100825.00;;;16.80
9985;BMP180;16737;50.932;6.780;2023-05-29T04:04:38;100828.00;;;16.80
9985;BMP180;16737;50.932;6.780;2023-05-29T04:07:06;100835.00;;;16.70
9985;BMP180;16737;50.932;6.780;2023-05-29T04:09:33;100834.00;;;16.70
9985;BMP180;16737;50.932;6.780;2023-05-29T04:12:00;100832.00;;;16.70
9985;BMP180;16737;50.932;6.780;2023-05-29T04:14:28;100837.00;;;16.70
9985;BMP180;16737;50.932;6.780;2023-05-29T04:16:55;100845.00;;;16.70
9985;BMP180;16737;50.932;6.780;2023-05-29T04:19:23;100839.00;;;16.70
9985;BMP180;16737;50.932;6.780;2023-05-29T04:21:50;100845.00;;;16.70
9985;BMP180;16737;50.932;6.780;2023-05-29T04:24:17;100839.00;;;16.70
9985;BMP180;16737;50.932;6.780;2023-05-29T04:26:44;100843.00;;;16.70
9985;BMP180;16737;50.932;6.780;2023-05-29T04:29:12;100850.00;;;16.70
9985;BMP180;16737;50.932;6.780;2023-05-29T04:31:39;100858.00;;;16.60
9985;BMP180;16737;50.932;6.780;2023-05-29T04:34:06;100856.00;;;16.60
9985;BMP180;16737;50.932;6.780;2023-05-29T04:36:35;100853.00;;;16.60
9985;BMP180;16737;50.932;6.780;2023-05-29T04:39:04;100862.00;;;16.60
9985;BMP180;16737;50.932;6.780;2023-05-29T04:41:31;100859.00;;;16.60
9985;BMP180;16737;50.932;6.780;2023-05-29T04:43:58;100866.00;;;16.60
9985;BMP180;16737;50.932;6.780;2023-05-29T04:46:25;100875.00;;;16.60
9985;BMP180;16737;50.932;6.780;2023-05-29T04:48:53;100882.00;;;16.60
9985;BMP180;16737;50.932;6.780;2023-05-29T04:51:20;100882.00;;;16.60
9985;BMP180;16737;50.932;6.780;2023-05-29T04:53:50;100878.00;;;16.60
9985;BMP180;16737;50.932;6.780;2023-05-29T04:56:18;100871.00;;;16.60
9985;BMP180;16737;50.932;6.780;2023-05-29T04:58:44;100871.00;;;16.60
9985;BMP180;16737;50.932;6.780;2023-05-29T05:01:11;100873.00;;;16.60
9985;BMP180;16737;50.932;6.780;2023-05-29T05:03:40;100873.00;;;16.60
9985;BMP180;16737;50.932;6.780;2023-05-29T05:06:07;100869.00;;;16.60
9985;BMP180;16737;50.932;6.780;2023-05-29T05:08:34;100881.00;;;16.70
9985;BMP180;16737;50.932;6.780;2023-05-29T05:11:03;100879.00;;;16.70
9985;BMP180;16737;50.932;6.780;2023-05-29T05:13:30;100870.00;;;16.70
9985;BMP180;16737;50.932;6.780;2023-05-29T05:15:57;100870.00;;;16.70
9985;BMP180;16737;50.932;6.780;2023-05-29T05:18:24;100875.00;;;16.70
9985;BMP180;16737;50.932;6.780;2023-05-29T05:20:51;100880.00;;;16.70
9985;BMP180;16737;50.932;6.780;2023-05-29T05:23:18;100878.00;;;16.70
9985;BMP180;16737;50.932;6.780;2023-05-29T05:25:45;100896.00;;;16.70
9985;BMP180;16737;50.932;6.780;2023-05-29T05:28:13;100898.00;;;16.70
9985;BMP180;16737;50.932;6.780;2023-05-29T05:30:40;100899.00;;;16.80
9985;BMP180;16737;50.932;6.780;2023-05-29T05:33:07;100896.00;;;16.80
9985;BMP180;16737;50.932;6.780;2023-05-29T05:35:34;100898.00;;;16.80
9985;BMP180;16737;50.932;6.780;2023-05-29T05:38:01;100886.00;;;16.90
9985;BMP180;16737;50.932;6.780;2023-05-29T05:40:28;100897.00;;;16.90
9985;BMP180;16737;50.932;6.780;2023-05-29T05:42:55;100902.00;;;16.90
9985;BMP180;16737;50.932;6.780;2023-05-29T05:45:23;100907.00;;;17.00
9985;BMP180;16737;50.932;6.780;2023-05-29T05:47:50;100904.00;;;17.00
9985;BMP180;16737;50.932;6.780;2023-05-29T05:50:17;100900.00;;;17.10
9985;BMP180;16737;50.932;6.780;2023-05-29T05:52:44;100914.00;;;17.10
9985;BMP180;16737;50.932;6.780;2023-05-29T05:55:11;100913.00;;;17.10
9985;BMP180;16737;50.932;6.780;2023-05-29T05:57:38;100915.00;;;17.20
9985;BMP180;16737;50.932;6.780;2023-05-29T06:00:06;100899.00;;;17.20
9985;BMP180;16737;50.932;6.780;2023-05-29T06:02:39;100919.00;;;17.20
9985;BMP180;16737;50.932;6.780;2023-05-29T06:05:08;100908.00;;;17.20
9985;BMP180;16737;50.932;6.780;2023-05-29T06:07:35;100901.00;;;17.20
9985;BMP180;16737;50.932;6.780;2023-05-29T06:10:03;100908.00;;;17.30
9985;BMP180;16737;50.932;6.780;2023-05-29T06:12:30;100899.00;;;17.30
9985;BMP180;16737;50.932;6.780;2023-05-29T06:14:57;100918.00;;;17.30
9985;BMP180;16737;50.932;6.780;2023-05-29T06:17:25;100922.00;;;17.30
9985;BMP180;16737;50.932;6.780;2023-05-29T06:19:53;100924.00;;;17.30
9985;BMP180;16737;50.932;6.780;2023-05-29T06:22:21;100918.00;;;17.40
9985;BMP180;16737;50.932;6.780;2023-05-29T06:24:48;100913.00;;;17.40
9985;BMP180;16737;50.932;6.780;2023-05-29T06:27:15;100927.00;;;17.50
9985;BMP180;16737;50.932;6.780;2023-05-29T06:29:42;100925.00;;;17.60
9985;BMP180;16737;50.932;6.780;2023-05-29T06:32:09;100914.00;;;17.60
9985;BMP180;16737;50.932;6.780;2023-05-29T06:34:36;100928.00;;;17.60
9985;BMP180;16737;50.932;6.780;2023-05-29T06:37:04;100930.00;;;17.70
9985;BMP180;16737;50.932;6.780;2023-05-29T06:39:31;100934.00;;;17.70
9985;BMP180;16737;50.932;6.780;2023-05-29T06:41:58;100919.00;;;17.80
9985;BMP180;16737;50.932;6.780;2023-05-29T06:44:26;100920.00;;;17.80
9985;BMP180;16737;50.932;6.780;2023-05-29T06:46:53;100930.00;;;17.90
9985;BMP180;16737;50.932;6.780;2023-05-29T06:49:20;100915.00;;;17.90
9985;BMP180;16737;50.932;6.780;2023-05-29T06:51:47;100927.00;;;18.00
9985;BMP180;16737;50.932;6.780;2023-05-29T06:54:16;100929.00;;;18.00
9985;BMP180;16737;50.932;6.780;2023-05-29T06:56:43;100919.00;;;18.10
9985;BMP180;16737;50.932;6.780;2023-05-29T06:59:10;100931.00;;;18.10
9985;BMP180;16737;50.932;6.780;2023-05-29T07:01:38;100913.00;;;18.20
9985;BMP180;16737;50.932;6.780;2023-05-29T07:04:10;100932.00;;;18.20
9985;BMP180;16737;50.932;6.780;2023-05-29T07:06:37;100937.00;;;18.30
9985;BMP180;16737;50.932;6.780;2023-05-29T07:09:04;100933.00;;;18.30
9985;BMP180;16737;50.932;6.780;2023-05-29T07:11:33;100932.00;;;18.30
9985;BMP180;16737;50.932;6.780;2023-05-29T07:13:59;100937.00;;;18.40
9985;BMP180;16737;50.932;6.780;2023-05-29T07:16:26;100942.00;;;18.50
9985;BMP180;16737;50.932;6.780;2023-05-29T07:18:53;100942.00;;;18.50
9985;BMP180;16737;50.932;6.780;2023-05-29T07:21:20;100946.00;;;18.50
9985;BMP180;16737;50.932;6.780;2023-05-29T07:23:47;100940.00;;;18.60
9985;BMP180;16737;50.932;6.780;2023-05-29T07:26:14;100939.00;;;18.70
9985;BMP180;16737;50.932;6.780;2023-05-29T07:28:42;100930.00;;;18.70
9985;BMP180;16737;50.932;6.780;2023-05-29T07:31:12;100940.00;;;18.80
9985;BMP180;16737;50.932;6.780;2023-05-29T07:33:40;100942.00;;;18.80
9985;BMP180;16737;50.932;6.780;2023-05-29T07:36:07;100938.00;;;18.90
9985;BMP180;16737;50.932;6.780;2023-05-29T07:38:34;100942.00;;;19.00
9985;BMP180;16737;50.932;6.780;2023-05-29T07:41:01;100949.00;;;19.00
9985;BMP180;16737;50.932;6.780;2023-05-29T07:43:28;100934.00;;;19.10
9985;BMP180;16737;50.932;6.780;2023-05-29T07:45:56;100951.00;;;19.10
9985;BMP180;16737;50.932;6.780;2023-05-29T07:48:23;100951.00;;;19.20
9985;BMP180;16737;50.932;6.780;2023-05-29T07:50:50;100960.00;;;19.20
9985;BMP180;16737;50.932;6.780;2023-05-29T07:53:18;100957.00;;;19.30
9985;BMP180;16737;50.932;6.780;2023-05-29T07:55:45;100958.00;;;19.30
9985;BMP180;16737;50.932;6.780;2023-05-29T07:58:12;100955.00;;;19.40
9985;BMP180;16737;50.932;6.780;2023-05-29T08:00:43;100952.00;;;19.40
9985;BMP180;16737;50.932;6.780;2023-05-29T08:03:12;100951.00;;;19.50
9985;BMP180;16737;50.932;6.780;2023-05-29T08:05:39;100961.00;;;19.60
9985;BMP180;16737;50.932;6.780;2023-05-29T08:08:06;100977.00;;;19.60
9985;BMP180;16737;50.932;6.780;2023-05-29T08:10:33;100971.00;;;19.70
9985;BMP180;16737;50.932;6.780;2023-05-29T08:13:00;100972.00;;;19.80
9985;BMP180;16737;50.932;6.780;2023-05-29T08:15:27;100978.00;;;19.80
9985;BMP180;16737;50.932;6.780;2023-05-29T08:17:54;100982.00;;;19.90
9985;BMP180;16737;50.932;6.780;2023-05-29T08:20:22;100987.00;;;20.00
9985;BMP180;16737;50.932;6.780;2023-05-29T08:22:49;100973.00;;;20.10
9985;BMP180;16737;50.932;6.780;2023-05-29T08:25:16;100964.00;;;20.10
9985;BMP180;16737;50.932;6.780;2023-05-29T08:27:43;100968.00;;;20.30
9985;BMP180;16737;50.932;6.780;2023-05-29T08:30:12;100977.00;;;20.30
9985;BMP180;16737;50.932;6.780;2023-05-29T08:32:39;100976.00;;;20.40
9985;BMP180;16737;50.932;6.780;2023-05-29T08:35:07;100978.00;;;20.50
9985;BMP180;16737;50.932;6.780;2023-05-29T08:37:35;100976.00;;;20.60
9985;BMP180;16737;50.932;6.780;2023-05-29T08:40:03;100972.00;;;20.70
9985;BMP180;16737;50.932;6.780;2023-05-29T08:42:40;100961.00;;;20.70
9985;BMP180;16737;50.932;6.780;2023-05-29T08:45:14;100984.00;;;20.80
9985;BMP180;16737;50.932;6.780;2023-05-29T08:47:41;100977.00;;;20.90
9985;BMP180;16737;50.932;6.780;2023-05-29T08:50:09;100979.00;;;21.00
9985;BMP180;16737;50.932;6.780;2023-05-29T08:52:39;100979.00;;;21.00
9985;BMP180;16737;50.932;6.780;2023-05-29T08:55:07;100971.00;;;21.10
9985;BMP180;16737;50.932;6.780;2023-05-29T08:57:37;100978.00;;;21.20
9985;BMP180;16737;50.932;6.780;2023-05-29T09:00:06;100979.00;;;21.20
9985;BMP180;16737;50.932;6.780;2023-05-29T09:02:38;100974.00;;;21.30
9985;BMP180;16737;50.932;6.780;2023-05-29T09:05:06;100974.00;;;21.40
9985;BMP180;16737;50.932;6.780;2023-05-29T09:07:34;100990.00;;;21.50
9985;BMP180;16737;50.932;6.780;2023-05-29T09:10:07;100978.00;;;21.50
9985;BMP180;16737;50.932;6.780;2023-05-29T09:12:35;100975.00;;;21.60
9985;BMP180;16737;50.932;6.780;2023-05-29T09:15:03;100979.00;;;21.70
9985;BMP180;16737;50.932;6.780;2023-05-29T09:17:34;100980.00;;;21.80
9985;BMP180;16737;50.932;6.780;2023-05-29T09:20:01;100977.00;;;21.80
9985;BMP180;16737;50.932;6.780;2023-05-29T09:22:31;100980.00;;;21.90
9985;BMP180;16737;50.932;6.780;2023-05-29T09:24:58;100985.00;;;22.00
9985;BMP180;16737;50.932;6.780;2023-05-29T09:27:26;100976.00;;;22.00
9985;BMP180;16737;50.932;6.780;2023-05-29T09:29:54;100982.00;;;22.10
9985;BMP180;16737;50.932;6.780;2023-05-29T09:32:21;100974.00;;;22.10
9985;BMP180;16737;50.932;6.780;2023-05-29T09:34:53;100985.00;;;22.10
9985;BMP180;16737;50.932;6.780;2023-05-29T09:37:20;100984.00;;;22.20
9985;BMP180;16737;50.932;6.780;2023-05-29T09:39:49;100984.00;;;22.20
9985;BMP180;16737;50.932;6.780;2023-05-29T09:42:17;100965.00;;;22.30
9985;BMP180;16737;50.932;6.780;2023-05-29T09:44:49;100991.00;;;22.40
9985;BMP180;16737;50.932;6.780;2023-05-29T09:47:18;100991.00;;;22.50
9985;BMP180;16737;50.932;6.780;2023-05-29T09:49:46;100988.00;;;22.60
9985;BMP180;16737;50.932;6.780;2023-05-29T09:52:14;100975.00;;;22.60
9985;BMP180;16737;50.932;6.780;2023-05-29T09:54:42;101000.00;;;22.70
9985;BMP180;16737;50.932;6.780;2023-05-29T09:57:13;100997.00;;;22.80
9985;BMP180;16737;50.932;6.780;2023-05-29T09:59:43;100999.00;;;22.80
9985;BMP180;16737;50.932;6.780;2023-05-29T10:02:13;100987.00;;;22.90
9985;BMP180;16737;50.932;6.780;2023-05-29T10:04:41;100987.00;;;23.00
9985;BMP180;16737;50.932;6.780;2023-05-29T10:07:22;100992.00;;;23.00
9985;BMP180;16737;50.932;6.780;2023-05-29T10:09:58;100990.00;;;23.10
9985;BMP180;16737;50.932;6.780;2023-05-29T10:12:28;100985.00;;;23.10
9985;BMP180;16737;50.932;6.780;2023-05-29T10:14:57;100970.00;;;23.20
9985;BMP180;16737;50.932;6.780;2023-05-29T10:17:33;100982.00;;;23.30
9985;BMP180;16737;50.932;6.780;2023-05-29T10:20:05;100988.00;;;23.30
9985;BMP180;16737;50.932;6.780;2023-05-29T10:22:35;100988.00;;;23.40
9985;BMP180;16737;50.932;6.780;2023-05-29T10:25:07;100974.00;;;23.50
9985;BMP180;16737;50.932;6.780;2023-05-29T10:27:36;100996.00;;;23.50
9985;BMP180;16737;50.932;6.780;2023-05-29T10:30:09;100997.00;;;23.60
9985;BMP180;16737;50.932;6.780;2023-05-29T10:32:55;101000.00;;;23.60
9985;BMP180;16737;50.932;6.780;2023-05-29T10:35:32;100997.00;;;23.70
9985;BMP180;16737;50.932;6.780;2023-05-29T10:38:11;100999.00;;;23.70
9985;BMP180;16737;50.932;6.780;2023-05-29T10:40:39;101002.00;;;23.70
9985;BMP180;16737;50.932;6.780;2023-05-29T10:43:06;101007.00;;;23.70
9985;BMP180;16737;50.932;6.780;2023-05-29T10:45:49;100999.00;;;23.70
9985;BMP180;16737;50.932;6.780;2023-05-29T10:48:44;101007.00;;;23.70
9985;BMP180;16737;50.932;6.780;2023-05-29T10:51:28;100993.00;;;23.80
9985;BMP180;16737;50.932;6.780;2023-05-29T10:53:57;101005.00;;;23.90
9985;BMP180;16737;50.932;6.780;2023-05-29T10:56:29;100975.00;;;23.90
9985;BMP180;16737;50.932;6.780;2023-05-29T10:59:00;100983.00;;;23.90
9985;BMP180;16737;50.932;6.780;2023-05-29T11:01:28;100979.00;;;24.00
9985;BMP180;16737;50.932;6.780;2023-05-29T11:04:30;100984.00;;;24.00
9985;BMP180;16737;50.932;6.780;2023-05-29T11:07:00;100983.00;;;24.10
9985;BMP180;16737;50.932;6.780;2023-05-29T11:09:33;100973.00;;;24.10
9985;BMP180;16737;50.932;6.780;2023-05-29T11:12:16;100983.00;;;24.10
9985;BMP180;16737;50.932;6.780;2023-05-29T11:14:59;100978.00;;;24.10
9985;BMP180;16737;50.932;6.780;2023-05-29T11:17:34;100979.00;;;24.20
9985;BMP180;16737;50.932;6.780;2023-05-29T11:20:27;100977.00;;;24.20
9985;BMP180;16737;50.932;6.780;2023-05-29T11:23:02;100982.00;;;24.30
9985;BMP180;16737;50.932;6.780;2023-05-29T11:25:35;100969.00;;;24.40
9985;BMP180;16737;50.932;6.780;2023-05-29T11:28:08;100971.00;;;24.50
9985;BMP180;16737;50.932;6.780;2023-05-29T11:30:47;100974.00;;;24.60
9985;BMP180;16737;50.932;6.780;2023-05-29T11:33:24;100970.00;;;24.70
9985;BMP180;16737;50.932;6.780;2023-05-29T11:35:57;100966.00;;;24.80
9985;BMP180;16737;50.932;6.780;2023-05-29T11:38:25;100961.00;;;25.00
9985;BMP180;16737;50.932;6.780;2023-05-29T11:40:54;100965.00;;;25.10
9985;BMP180;16737;50.932;6.780;2023-05-29T11:43:21;100970.00;;;25.20
9985;BMP180;16737;50.932;6.780;2023-05-29T11:45:48;100963.00;;;25.20
9985;BMP180;16737;50.932;6.780;2023-05-29T11:48:15;100966.00;;;25.30
9985;BMP180;16737;50.932;6.780;2023-05-29T11:50:42;100963.00;;;25.30
9985;BMP180;16737;50.932;6.780;2023-05-29T11:53:12;100954.00;;;25.40
9985;BMP180;16737;50.932;6.780;2023-05-29T11:55:39;100962.00;;;25.40
9985;BMP180;16737;50.932;6.780;2023-05-29T11:58:06;100968.00;;;25.50
9985;BMP180;16737;50.932;6.780;2023-05-29T12:00:35;100957.00;;;25.50
9985;BMP180;16737;50.932;6.780;2023-05-29T12:03:03;100962.00;;;25.50
9985;BMP180;16737;50.932;6.780;2023-05-29T12:05:32;100951.00;;;25.50
9985;BMP180;16737;50.932;6.780;2023-05-29T12:07:59;100958.00;;;25.60
9985;BMP180;16737;50.932;6.780;2023-05-29T12:10:31;100957.00;;;25.60
9985;BMP180;16737;50.932;6.780;2023-05-29T12:13:00;100963.00;;;25.60
9985;BMP180;16737;50.932;6.780;2023-05-29T12:15:28;100951.00;;;25.80
9985;BMP180;16737;50.932;6.780;2023-05-29T12:17:56;100950.00;;;25.80
9985;BMP180;16737;50.932;6.780;2023-05-29T12:20:24;100955.00;;;25.90
9985;BMP180;16737;50.932;6.780;2023-05-29T12:22:53;100958.00;;;25.90
9985;BMP180;16737;50.932;6.780;2023-05-29T12:25:26;100938.00;;;26.00
9985;BMP180;16737;50.932;6.780;2023-05-29T12:27:56;100952.00;;;26.00
9985;BMP180;16737;50.932;6.780;2023-05-29T12:30:24;100951.00;;;26.10
9985;BMP180;16737;50.932;6.780;2023-05-29T12:32:52;100957.00;;;26.10
9985;BMP180;16737;50.932;6.780;2023-05-29T12:35:22;100955.00;;;26.20
9985;BMP180;16737;50.932;6.780;2023-05-29T12:37:55;100959.00;;;26.20
9985;BMP180;16737;50.932;6.780;2023-05-29T12:40:24;100957.00;;;26.20
9985;BMP180;16737;50.932;6.780;2023-05-29T12:42:56;100960.00;;;26.20
9985;BMP180;16737;50.932;6.780;2023-05-29T12:45:26;100954.00;;;26.20
9985;BMP180;16737;50.932;6.780;2023-05-29T12:47:55;100960.00;;;26.20
9985;BMP180;16737;50.932;6.780;2023-05-29T12:50:24;100962.00;;;26.20
9985;BMP180;16737;50.932;6.780;2023-05-29T12:53:00;100957.00;;;26.20
9985;BMP180;16737;50.932;6.780;2023-05-29T12:55:29;100960.00;;;26.10
9985;BMP180;16737;50.932;6.780;2023-05-29T12:57:58;100963.00;;;26.10
9985;BMP180;16737;50.932;6.780;2023-05-29T13:00:25;100960.00;;;26.10
9985;BMP180;16737;50.932;6.780;2023-05-29T13:02:53;100967.00;;;26.10
9985;BMP180;16737;50.932;6.780;2023-05-29T13:05:19;100966.00;;;26.10
9985;BMP180;16737;50.932;6.780;2023-05-29T13:07:49;100959.00;;;26.20
9985;BMP180;16737;50.932;6.780;2023-05-29T13:10:16;100957.00;;;26.20
9985;BMP180;16737;50.932;6.780;2023-05-29T13:12:44;100960.00;;;26.20
9985;BMP180;16737;50.932;6.780;2023-05-29T13:15:14;100949.00;;;26.20
9985;BMP180;16737;50.932;6.780;2023-05-29T13:17:41;100971.00;;;26.10
9985;BMP180;16737;50.932;6.780;2023-05-29T13:20:10;100971.00;;;26.10
9985;BMP180;16737;50.932;6.780;2023-05-29T13:22:39;100962.00;;;26.20
9985;BMP180;16737;50.932;6.780;2023-05-29T13:25:08;100963.00;;;26.20
9985;BMP180;16737;50.932;6.780;2023-05-29T13:27:36;100969.00;;;26.20
9985;BMP180;16737;50.932;6.780;2023-05-29T13:30:06;100961.00;;;26.20
9985;BMP180;16737;50.932;6.780;2023-05-29T13:32:37;100969.00;;;26.20
9985;BMP180;16737;50.932;6.780;2023-05-29T13:35:05;100929.00;;;26.20
9985;BMP180;16737;50.932;6.780;2023-05-29T13:37:32;100963.00;;;26.20
9985;BMP180;16737;50.932;6.780;2023-05-29T13:40:03;100967.00;;;26.20
9985;BMP180;16737;50.932;6.780;2023-05-29T13:42:36;100969.00;;;26.20
9985;BMP180;16737;50.932;6.780;2023-05-29T13:45:05;100973.00;;;26.30
9985;BMP180;16737;50.932;6.780;2023-05-29T13:47:33;100959.00;;;26.30
9985;BMP180;16737;50.932;6.780;2023-05-29T13:50:02;100962.00;;;26.30
9985;BMP180;16737;50.932;6.780;2023-05-29T13:52:31;100956.00;;;26.40
9985;BMP180;16737;50.932;6.780;2023-05-29T13:54:58;100960.00;;;26.40
9985;BMP180;16737;50.932;6.780;2023-05-29T13:57:30;100956.00;;;26.40
9985;BMP180;16737;50.932;6.780;2023-05-29T13:59:57;100952.00;;;26.30
9985;BMP180;16737;50.932;6.780;2023-05-29T14:02:24;100957.00;;;26.40
9985;BMP180;16737;50.932;6.780;2023-05-29T14:04:52;100958.00;;;26.40
9985;BMP180;16737;50.932;6.780;2023-05-29T14:07:20;100953.00;;;26.40
9985;BMP180;16737;50.932;6.780;2023-05-29T14:09:49;100943.00;;;26.40
9985;BMP180;16737;50.932;6.780;2023-05-29T14:12:16;100943.00;;;26.40
9985;BMP180;16737;50.932;6.780;2023-05-29T14:14:43;100943.00;;;26.30
9985;BMP180;16737;50.932;6.780;2023-05-29T14:17:10;100938.00;;;26.30
9985;BMP180;16737;50.932;6.780;2023-05-29T14:19:38;100941.00;;;26.30